Time;durP1;ratioP1;P1;durP2;ratioP2;P2;SDS_P1;SDS_P2;PMS_P1;PMS_P2;Temp;Humidity;BMP_temperature;BMP_pressure;BME280_temperature;BME280_humidity;BME280_pressure;Samples;Min_cycle;Max_cycle;Signal;HPM_P1;HPM_P2
2022/06/10 00:01:46;;;;;;;6.20;5.17;;;16.70;1.00;;;;;;8368884;28;20203;-63
2022/06/10 00:05:49;;;;;;;7.87;5.73;;;16.70;99.90;;;;;;8365166;28;20215;-64
2022/06/10 00:09:50;;;;;;;7.63;5.73;;;16.70;99.90;;;;;;8363508;28;20188;-64
2022/06/10 00:13:51;;;;;;;6.50;5.10;;;16.70;99.90;;;;;;8370162;28;20251;-64
2022/06/10 00:17:51;;;;;;;7.50;5.30;;;16.70;1.00;;;;;;8370789;28;20185;-65
2022/06/10 00:21:52;;;;;;;6.13;5.27;;;16.60;96.80;;;;;;8365625;28;20495;-63
2022/06/10 00:25:54;;;;;;;5.43;4.93;;;16.60;99.90;;;;;;8366585;28;20189;-64
2022/06/10 00:29:55;;;;;;;5.63;5.00;;;16.60;99.90;;;;;;8365211;28;20204;-64
2022/06/10 00:33:55;;;;;;;6.50;5.03;;;16.50;99.90;;;;;;8362609;28;20656;-64
2022/06/10 00:37:57;;;;;;;8.47;5.30;;;16.50;99.90;;;;;;8362943;28;20188;-64
2022/06/10 00:41:58;;;;;;;5.80;5.20;;;16.50;99.90;;;;;;8369935;28;20403;-65
2022/06/10 00:46:23;;;;;;;6.40;5.17;;;16.50;99.90;;;;;;8360728;28;20177;-66
2022/06/10 00:50:30;;;;;;;5.67;5.10;;;16.50;99.90;;;;;;8370185;28;20216;-64
2022/06/10 00:54:43;;;;;;;6.30;5.37;;;16.50;99.90;;;;;;8365760;28;20292;-65
2022/06/10 00:59:03;;;;;;;8.53;5.77;;;16.50;1.00;;;;;;8362159;28;20182;-63
2022/06/10 01:03:05;;;;;;;8.53;5.77;;;16.50;99.90;;;;;;8359346;28;20198;-64
2022/06/10 01:07:06;;;;;;;7.43;5.67;;;16.50;1.00;;;;;;8365626;28;20197;-66
2022/06/10 01:11:38;;;;;;;7.97;5.37;;;16.50;99.90;;;;;;8363906;28;20196;-66
2022/06/10 01:16:17;;;;;;;6.10;5.07;;;16.50;99.90;;;;;;8361442;28;20271;-65
2022/06/10 01:20:23;;;;;;;5.67;5.07;;;16.40;99.90;;;;;;8363832;28;20178;-68
2022/06/10 01:25:02;;;;;;;8.70;5.93;;;16.50;1.00;;;;;;8359598;28;20186;-68
2022/06/10 01:29:26;;;;;;;7.13;6.17;;;16.50;99.90;;;;;;8341682;28;20213;-64
2022/06/10 01:33:39;;;;;;;7.30;5.90;;;16.50;99.90;;;;;;8364099;28;20280;-65
2022/06/10 01:38:22;;;;;;;5.90;5.30;;;16.50;99.90;;;;;;8376742;28;20193;-66
2022/06/10 01:42:28;;;;;;;7.10;6.07;;;16.60;1.00;;;;;;8367194;28;20190;-64
2022/06/10 01:46:32;;;;;;;6.50;5.90;;;16.60;91.70;;;;;;8375050;28;20178;-64
2022/06/10 01:50:46;;;;;;;7.87;6.03;;;16.60;99.90;;;;;;8373407;28;20217;-63
2022/06/10 01:55:19;;;;;;;10.07;6.27;;;16.60;99.90;;;;;;8374864;28;20273;-64
2022/06/10 01:59:36;;;;;;;6.97;5.60;;;16.60;99.90;;;;;;8372045;28;20182;-64
2022/06/10 02:03:43;;;;;;;6.60;6.00;;;16.50;1.00;;;;;;8367309;28;20201;-67
2022/06/10 02:07:59;;;;;;;6.93;6.23;;;16.50;1.00;;;;;;8374020;28;20190;-64
2022/06/10 02:12:34;;;;;;;7.00;5.53;;;16.50;99.90;;;;;;8371253;28;20635;-65
2022/06/10 02:16:39;;;;;;;9.17;6.10;;;16.40;99.90;;;;;;8360748;28;20218;-64
2022/06/10 02:20:49;;;;;;;8.33;6.00;;;16.40;99.90;;;;;;8372726;28;20186;-67
2022/06/10 02:24:59;;;;;;;8.60;6.30;;;16.40;1.00;;;;;;8370772;28;20188;-63
2022/06/10 02:29:06;;;;;;;6.90;6.03;;;16.40;1.00;;;;;;8366890;28;20205;-66
2022/06/10 02:33:07;;;;;;;7.27;6.57;;;16.30;99.90;;;;;;8372192;28;20185;-65
2022/06/10 02:37:25;;;;;;;8.90;6.47;;;16.30;54.40;;;;;;8365206;28;20609;-63
2022/06/10 02:41:33;;;;;;;8.60;6.33;;;16.30;99.90;;;;;;8370144;28;20169;-65
2022/06/10 02:45:42;;;;;;;7.00;6.13;;;16.30;99.90;;;;;;8364378;28;20235;-65
2022/06/10 02:49:43;;;;;;;8.70;6.87;;;16.30;99.90;;;;;;8375906;28;20193;-65
2022/06/10 02:53:44;;;;;;;8.07;7.00;;;16.20;1.00;;;;;;8365923;28;20216;-68
2022/06/10 03:02:26;;;;;;;8.40;7.40;;;16.20;99.90;;;;;;8366443;28;20457;-68
2022/06/10 03:06:38;;;;;;;8.43;6.60;;;16.20;99.90;;;;;;8368781;28;20189;-66
2022/06/10 03:11:07;;;;;;;6.77;6.17;;;16.20;99.90;;;;;;8365347;28;20186;-67
2022/06/10 03:15:14;;;;;;;10.23;7.40;;;16.20;99.90;;;;;;8365578;28;20193;-70
2022/06/10 03:19:33;;;;;;;10.00;7.03;;;16.10;99.90;;;;;;8368379;28;20204;-69
2022/06/10 03:24:13;;;;;;;9.50;7.30;;;16.10;99.90;;;;;;8366814;28;20185;-66
2022/06/10 03:28:46;;;;;;;8.40;7.00;;;16.10;1.00;;;;;;8362388;28;20213;-67
2022/06/10 03:33:17;;;;;;;9.10;7.07;;;16.10;1.00;;;;;;8379620;28;20214;-68
2022/06/10 03:37:19;;;;;;;7.97;7.17;;;16.20;99.90;;;;;;8375773;28;20267;-66
2022/06/10 03:41:25;;;;;;;10.03;7.30;;;16.30;99.90;;;;;;8370756;28;20173;-68
2022/06/10 03:45:33;;;;;;;7.60;6.80;;;16.80;99.90;;;;;;8362719;28;20182;-67
2022/06/10 03:49:50;;;;;;;6.90;6.23;;;17.20;1.00;;;;;;8365115;28;20186;-66
2022/06/10 03:53:51;;;;;;;6.47;5.77;;;17.30;1.00;;;;;;8367718;28;21423;-66
2022/06/10 03:57:51;;;;;;;6.93;5.83;;;17.10;99.90;;;;;;8365203;28;20186;-68
2022/06/10 04:01:52;;;;;;;7.63;6.77;;;16.80;99.90;;;;;;8367870;28;20236;-67
2022/06/10 04:05:53;;;;;;;7.30;6.60;;;16.60;1.00;;;;;;8364446;28;20271;-67
2022/06/10 04:09:53;;;;;;;7.20;6.47;;;16.50;98.90;;;;;;8366997;28;20564;-68
2022/06/10 04:13:54;;;;;;;7.23;6.53;;;16.50;34.60;;;;;;8364206;28;20192;-68
2022/06/10 04:17:56;;;;;;;7.67;6.87;;;16.50;15.20;;;;;;8359676;28;20234;-66
2022/06/10 04:21:57;;;;;;;9.37;7.30;;;16.40;99.90;;;;;;8371371;28;20177;-66
2022/06/10 04:25:59;;;;;;;10.93;7.23;;;16.40;99.90;;;;;;8359132;28;20561;-67
2022/06/10 04:29:59;;;;;;;7.33;6.63;;;16.40;1.00;;;;;;8359608;28;20239;-71
2022/06/10 04:34:00;;;;;;;7.80;7.00;;;16.40;1.00;;;;;;8365682;28;20232;-71
2022/06/10 04:38:01;;;;;;;8.50;7.70;;;16.40;99.90;;;;;;8370406;28;20210;-67
2022/06/10 04:42:02;;;;;;;7.80;7.10;;;16.50;99.90;;;;;;8366951;28;20174;-67
2022/06/10 04:46:05;;;;;;;7.43;6.37;;;16.70;1.00;;;;;;8365926;28;20177;-66
2022/06/10 04:50:09;;;;;;;7.77;6.97;;;16.70;99.90;;;;;;8367533;28;20186;-68
2022/06/10 04:54:11;;;;;;;8.63;6.60;;;16.70;99.90;;;;;;8368864;28;20605;-68
2022/06/10 04:58:12;;;;;;;8.47;6.63;;;16.70;99.90;;;;;;8369327;28;20189;-66
2022/06/10 05:02:12;;;;;;;8.40;7.33;;;16.70;62.70;;;;;;8370487;28;20197;-68
2022/06/10 05:06:13;;;;;;;8.77;7.87;;;16.70;1.00;;;;;;8370174;28;20260;-68
2022/06/10 05:10:16;;;;;;;8.57;6.77;;;16.90;99.90;;;;;;8370503;28;20187;-68
2022/06/10 05:14:17;;;;;;;7.87;7.07;;;17.00;99.90;;;;;;8369279;28;20207;-67
2022/06/10 05:18:21;;;;;;;8.40;6.40;;;17.20;10.90;;;;;;8370879;28;20213;-66
2022/06/10 05:22:22;;;;;;;8.33;5.80;;;17.70;1.00;;;;;;8373166;28;20181;-67
2022/06/10 05:26:22;;;;;;;8.70;6.33;;;17.90;1.00;;;;;;8372027;28;20205;-67
2022/06/10 05:30:26;;;;;;;6.80;5.77;;;17.90;99.90;;;;;;8372038;28;20198;-68
2022/06/10 05:34:48;;;;;;;6.73;5.47;;;17.90;1.00;;;;;;8372176;28;20327;-67
2022/06/10 05:38:49;;;;;;;6.10;5.13;;;17.90;99.90;;;;;;8370807;28;20173;-69
2022/06/10 05:42:50;;;;;;;6.70;4.90;;;17.70;99.90;;;;;;8367608;28;20491;-67
2022/06/10 05:46:52;;;;;;;5.70;5.03;;;17.50;99.90;;;;;;8368729;28;20342;-66
2022/06/10 05:50:53;;;;;;;5.97;4.57;;;17.60;36.60;;;;;;8367876;28;20197;-68
2022/06/10 05:54:56;;;;;;;5.50;3.80;;;17.80;64.30;;;;;;8373410;28;20208;-67
2022/06/10 05:58:57;;;;;;;4.40;3.80;;;18.00;99.90;;;;;;8369405;28;20174;-69
2022/06/10 06:02:59;;;;;;;4.73;3.47;;;18.10;99.90;;;;;;8371039;28;20203;-67
2022/06/10 06:07:00;;;;;;;3.90;2.97;;;18.20;99.90;;;;;;8366330;28;20617;-70
2022/06/10 06:11:00;;;;;;;2.83;2.63;;;18.50;1.00;;;;;;8370622;28;20180;-65
2022/06/10 06:15:01;;;;;;;4.50;2.50;;;18.40;1.00;;;;;;8366432;28;20233;-71
2022/06/10 06:19:03;;;;;;;2.60;2.27;;;18.50;1.00;;;;;;8375034;28;20180;-68
2022/06/10 06:23:04;;;;;;;3.30;1.90;;;18.70;99.90;;;;;;8365353;28;20182;-66
2022/06/10 06:27:08;;;;;;;2.90;2.30;;;18.70;99.90;;;;;;8370116;28;20200;-71
2022/06/10 06:31:10;;;;;;;3.13;1.40;;;18.70;99.90;;;;;;8374390;28;20187;-68
2022/06/10 06:35:11;;;;;;;5.13;1.50;;;18.70;1.00;;;;;;8373423;28;20232;-65
2022/06/10 06:39:14;;;;;;;2.57;1.40;;;18.70;1.00;;;;;;8366097;28;20174;-66
2022/06/10 06:43:15;;;;;;;1.43;1.20;;;18.80;1.00;;;;;;8370453;28;20185;-66
2022/06/10 06:47:15;;;;;;;2.30;1.20;;;18.80;1.00;;;;;;8373551;28;20261;-67
2022/06/10 06:51:16;;;;;;;1.87;1.23;;;18.90;99.90;;;;;;8373085;28;20190;-68
2022/06/10 06:55:17;;;;;;;2.30;1.20;;;18.80;99.90;;;;;;8373890;28;20300;-68
2022/06/10 06:59:18;;;;;;;1.60;1.30;;;18.70;99.90;;;;;;8366597;28;20186;-70
2022/06/10 07:03:19;;;;;;;3.43;1.00;;;18.90;99.90;;;;;;8377095;28;20201;-71
2022/06/10 07:07:20;;;;;;;4.60;1.10;;;18.90;99.90;;;;;;8368589;28;20195;-72
2022/06/10 07:11:21;;;;;;;2.13;1.30;;;19.10;99.90;;;;;;8374171;28;20185;-67
2022/06/10 07:15:22;;;;;;;2.30;1.23;;;19.10;99.90;;;;;;8373633;28;20213;-68
2022/06/10 07:19:23;;;;;;;2.53;1.10;;;19.20;99.90;;;;;;8369913;28;20612;-67
2022/06/10 07:23:25;;;;;;;1.23;1.00;;;19.30;99.90;;;;;;8377648;28;20213;-68
2022/06/10 07:27:26;;;;;;;2.17;1.00;;;19.20;99.90;;;;;;8365829;28;20208;-69
2022/06/10 07:31:26;;;;;;;1.00;0.90;;;19.20;99.90;;;;;;8367195;28;20182;-67
2022/06/10 07:35:28;;;;;;;1.63;1.20;;;19.50;99.90;;;;;;8367129;28;20211;-67
2022/06/10 07:39:29;;;;;;;2.20;1.07;;;19.70;99.90;;;;;;8366163;28;20260;-70
2022/06/10 07:43:30;;;;;;;2.50;1.27;;;20.00;99.90;;;;;;8375065;28;20208;-70
2022/06/10 07:47:31;;;;;;;2.67;1.17;;;20.10;99.90;;;;;;8366814;28;20193;-65
2022/06/10 07:51:32;;;;;;;2.00;1.03;;;20.20;99.90;;;;;;8370218;28;20239;-70
2022/06/10 07:55:33;;;;;;;2.30;1.03;;;20.30;99.90;;;;;;8366955;28;20224;-69
2022/06/10 07:59:34;;;;;;;2.17;1.20;;;19.90;99.90;;;;;;8367671;28;20185;-70
2022/06/10 08:03:35;;;;;;;1.10;0.60;;;19.90;99.90;;;;;;8367965;28;20247;-67
2022/06/10 08:07:37;;;;;;;2.00;0.87;;;20.00;99.90;;;;;;8373345;28;20186;-69
2022/06/10 08:11:40;;;;;;;3.77;0.90;;;20.00;99.90;;;;;;8372690;28;20192;-71
2022/06/10 08:15:43;;;;;;;2.03;0.70;;;20.10;99.90;;;;;;8364959;28;20297;-72
2022/06/10 08:19:44;;;;;;;1.17;0.57;;;20.20;99.90;;;;;;8372844;28;20186;-69
2022/06/10 08:23:45;;;;;;;2.13;0.70;;;20.20;99.90;;;;;;8377471;28;20368;-66
2022/06/10 08:27:49;;;;;;;1.00;0.70;;;20.20;99.90;;;;;;8368665;28;20228;-67
2022/06/10 08:31:49;;;;;;;1.97;0.80;;;20.40;99.90;;;;;;8367225;28;20189;-70
2022/06/10 08:35:50;;;;;;;2.47;0.83;;;20.50;99.90;;;;;;8366997;28;20208;-69
2022/06/10 08:39:51;;;;;;;2.20;0.67;;;20.60;99.90;;;;;;8366658;28;20192;-73
2022/06/10 08:44:05;;;;;;;2.77;0.77;;;20.70;99.90;;;;;;8366674;28;20185;-66
2022/06/10 08:48:21;;;;;;;3.07;0.90;;;20.90;99.90;;;;;;8376253;28;20185;-68
2022/06/10 08:52:31;;;;;;;1.57;0.90;;;21.00;99.90;;;;;;8372836;28;20184;-71
2022/06/10 08:56:42;;;;;;;2.07;1.00;;;20.90;99.90;;;;;;8376853;28;20220;-68
2022/06/10 09:00:44;;;;;;;3.07;0.80;;;21.00;99.90;;;;;;8369783;28;20193;-67
2022/06/10 09:05:01;;;;;;;1.83;0.90;;;21.00;83.10;;;;;;8375639;28;20312;-67
2022/06/10 09:09:05;;;;;;;1.90;0.70;;;21.00;90.50;;;;;;8379477;28;20191;-71
2022/06/10 09:13:46;;;;;;;1.90;0.77;;;21.00;78.90;;;;;;8372616;28;20221;-69
2022/06/10 09:17:55;;;;;;;1.77;0.70;;;21.10;80.60;;;;;;8380377;28;20229;-69
2022/06/10 09:22:02;;;;;;;2.20;0.90;;;21.20;76.40;;;;;;8367860;28;20178;-70
2022/06/10 09:26:10;;;;;;;5.23;0.80;;;21.30;93.80;;;;;;8372278;28;20186;-68
2022/06/10 09:30:16;;;;;;;1.90;0.80;;;21.40;35.20;;;;;;8373393;28;20292;-64
2022/06/10 09:34:46;;;;;;;3.10;0.80;;;21.50;56.80;;;;;;8373475;28;20213;-73
2022/06/10 09:40:35;;;;;;;1.93;0.80;;;21.60;20.90;;;;;;8367814;28;20189;-69
2022/06/10 09:43:43;;;;;;;1.43;0.60;;;21.70;16.80;;;;;;8369155;28;20273;-68
2022/06/10 09:48:27;;;;;;;1.47;0.60;;;21.60;23.20;;;;;;8377065;28;20189;-69
2022/06/10 09:52:51;;;;;;;0.90;0.67;;;21.70;1.00;;;;;;8368166;28;20190;-70
2022/06/10 09:57:10;;;;;;;1.20;0.80;;;21.70;1.00;;;;;;8375098;28;20268;-67
2022/06/10 10:01:18;;;;;;;3.00;0.73;;;21.80;1.00;;;;;;8378936;28;20192;-67
2022/06/10 10:05:28;;;;;;;1.43;0.63;;;22.00;1.00;;;;;;8372908;28;20182;-68
2022/06/10 10:09:58;;;;;;;1.70;0.50;;;22.00;1.00;;;;;;8366404;28;20186;-69
2022/06/10 10:14:25;;;;;;;1.77;0.70;;;22.10;1.00;;;;;;8374873;28;20269;-69
2022/06/10 10:18:56;;;;;;;3.00;0.60;;;22.20;1.00;;;;;;8375065;28;20208;-66
2022/06/10 10:23:09;;;;;;;1.37;0.57;;;22.20;1.00;;;;;;8369258;28;20181;-70
2022/06/10 10:27:33;;;;;;;1.40;0.60;;;22.40;1.00;;;;;;8372616;28;20221;-65
2022/06/10 10:31:40;;;;;;;4.97;0.70;;;22.60;1.00;;;;;;8383161;28;20198;-71
2022/06/10 10:35:41;;;;;;;2.30;0.90;;;22.60;1.00;;;;;;8369606;28;20287;-67
2022/06/10 10:39:50;;;;;;;2.83;1.37;;;22.40;1.00;;;;;;8374414;28;20254;-67
2022/06/10 10:43:55;;;;;;;3.37;0.80;;;22.40;1.00;;;;;;8369055;28;20205;-65
2022/06/10 10:47:59;;;;;;;1.03;0.70;;;22.40;1.00;;;;;;8368782;28;20185;-66
2022/06/10 10:52:13;;;;;;;1.73;0.70;;;22.60;1.00;;;;;;8374242;28;20181;-68
2022/06/10 10:56:15;;;;;;;1.33;0.60;;;22.80;1.00;;;;;;8366485;28;20202;-67
2022/06/10 11:00:16;;;;;;;2.67;0.97;;;22.70;1.00;;;;;;8371077;28;20188;-71
2022/06/10 11:04:40;;;;;;;2.60;0.90;;;22.80;1.00;;;;;;8364905;28;20285;-71
2022/06/10 11:08:56;;;;;;;3.60;0.93;;;22.90;1.00;;;;;;8370223;28;20188;-70
2022/06/10 11:13:01;;;;;;;2.23;0.70;;;22.90;1.00;;;;;;8374772;28;20243;-67
2022/06/10 11:17:12;;;;;;;2.57;0.70;;;23.00;1.00;;;;;;8366394;28;20194;-66
2022/06/10 11:21:13;;;;;;;3.07;0.87;;;23.00;1.00;;;;;;8360809;28;20265;-71
2022/06/10 11:25:22;;;;;;;2.40;0.93;;;22.80;1.00;;;;;;8366528;28;20189;-70
2022/06/10 11:29:24;;;;;;;1.30;0.70;;;22.90;1.00;;;;;;8368076;28;20197;-68
2022/06/10 11:33:46;;;;;;;1.87;0.73;;;23.00;1.00;;;;;;8370779;28;20249;-68
2022/06/10 11:37:50;;;;;;;1.83;0.90;;;22.90;1.00;;;;;;8364824;28;20216;-68
2022/06/10 11:42:07;;;;;;;3.67;1.23;;;23.10;1.00;;;;;;8372125;28;20177;-68
2022/06/10 11:46:21;;;;;;;3.50;0.87;;;23.50;1.00;;;;;;8368037;28;20236;-67
2022/06/10 11:50:34;;;;;;;2.40;1.13;;;23.60;1.00;;;;;;8363976;28;20182;-69
2022/06/10 11:54:50;;;;;;;5.47;1.00;;;23.60;1.00;;;;;;8362848;28;20206;-67
2022/06/10 12:03:34;;;;;;;2.83;0.97;;;23.40;1.00;;;;;;8370529;28;20243;-69
2022/06/10 12:07:43;;;;;;;1.77;0.80;;;23.80;1.00;;;;;;8366883;28;20519;-67
2022/06/10 12:11:56;;;;;;;2.60;0.87;;;24.40;1.00;;;;;;8373519;28;20228;-68
2022/06/10 12:15:58;;;;;;;1.70;0.80;;;24.20;1.00;;;;;;8376449;28;20200;-68
2022/06/10 12:20:05;;;;;;;2.57;0.77;;;23.90;1.00;;;;;;8366974;28;20177;-67
2022/06/10 12:24:13;;;;;;;2.77;1.10;;;23.90;1.00;;;;;;8367850;28;20196;-69
2022/06/10 12:28:35;;;;;;;2.73;1.13;;;23.90;1.00;;;;;;8368971;28;20205;-69
2022/06/10 12:32:44;;;;;;;3.23;0.80;;;23.40;1.00;;;;;;8372799;28;20182;-72
2022/06/10 12:37:00;;;;;;;2.90;1.17;;;23.50;1.00;;;;;;8366848;28;20216;-70
2022/06/10 12:41:10;;;;;;;2.63;0.80;;;24.30;1.00;;;;;;8364757;28;20181;-70
2022/06/10 12:45:31;;;;;;;0.83;0.70;;;24.30;1.00;;;;;;8367815;28;20197;-71
2022/06/10 12:49:39;;;;;;;2.23;0.80;;;23.90;1.00;;;;;;8359087;28;20194;-70
2022/06/10 12:54:01;;;;;;;3.63;0.93;;;23.70;1.00;;;;;;8368725;28;20200;-68
2022/06/10 12:58:03;;;;;;;3.13;0.90;;;24.20;1.00;;;;;;8370488;28;20181;-67
2022/06/10 13:02:53;;;;;;;2.10;0.70;;;24.30;1.00;;;;;;8368018;28;20263;-68
2022/06/10 13:07:01;;;;;;;2.07;0.70;;;24.60;1.00;;;;;;8359655;28;20539;-71
2022/06/10 13:11:05;;;;;;;2.60;1.00;;;24.40;1.00;;;;;;8360375;28;20177;-72
2022/06/10 13:15:35;;;;;;;2.97;0.90;;;24.00;1.00;;;;;;8370570;28;20201;-68
2022/06/10 13:19:54;;;;;;;4.70;0.63;;;23.70;1.00;;;;;;8366868;28;20202;-67
2022/06/10 13:23:58;;;;;;;1.90;0.80;;;23.30;1.00;;;;;;8370958;28;20178;-67
2022/06/10 13:27:59;;;;;;;3.70;1.03;;;23.50;1.00;;;;;;8370495;28;20206;-67
2022/06/10 13:32:00;;;;;;;1.87;0.70;;;23.60;1.00;;;;;;8370179;28;20185;-69
2022/06/10 13:36:01;;;;;;;3.40;0.80;;;23.90;1.00;;;;;;8375115;28;20290;-68
2022/06/10 13:40:04;;;;;;;0.97;0.63;;;23.90;1.00;;;;;;8373680;28;20177;-71
2022/06/10 13:44:05;;;;;;;3.70;0.70;;;24.00;1.00;;;;;;8365560;28;20768;-67
2022/06/10 13:48:18;;;;;;;3.70;0.77;;;24.40;1.00;;;;;;8372555;28;20190;-67
2022/06/10 13:52:25;;;;;;;4.00;0.70;;;24.90;1.00;;;;;;8370876;28;20174;-70
2022/06/10 13:56:42;;;;;;;3.10;1.00;;;25.30;1.00;;;;;;8373426;28;20205;-67
2022/06/10 14:00:48;;;;;;;2.13;0.70;;;25.00;1.00;;;;;;8376018;28;20194;-69
2022/06/10 14:04:50;;;;;;;3.97;0.90;;;24.80;1.00;;;;;;8376460;28;20189;-67
2022/06/10 14:09:19;;;;;;;2.30;0.60;;;24.70;1.00;;;;;;8374081;28;20184;-67
2022/06/10 14:13:23;;;;;;;3.03;0.70;;;24.80;1.00;;;;;;8366913;28;20217;-67
2022/06/10 14:17:25;;;;;;;2.03;0.77;;;24.90;1.00;;;;;;8369638;28;20240;-68
2022/06/10 14:21:29;;;;;;;2.87;1.13;;;25.00;1.00;;;;;;8365966;28;20216;-69
2022/06/10 14:25:31;;;;;;;1.40;0.63;;;25.30;1.00;;;;;;8367817;28;20189;-67
2022/06/10 14:29:44;;;;;;;4.37;0.83;;;25.20;1.00;;;;;;8374172;28;20213;-67
2022/06/10 14:33:48;;;;;;;2.50;0.90;;;25.40;1.00;;;;;;8369496;28;20251;-70
2022/06/10 14:38:18;;;;;;;5.37;0.87;;;25.40;1.00;;;;;;8369507;28;20212;-68
2022/06/10 14:42:24;;;;;;;2.83;0.93;;;25.20;1.00;;;;;;8370102;28;20190;-67
2022/06/10 14:46:26;;;;;;;1.27;0.50;;;25.40;1.00;;;;;;8366398;28;20193;-68
2022/06/10 14:50:27;;;;;;;1.37;0.50;;;25.10;1.00;;;;;;8376789;28;21674;-66
2022/06/10 14:54:27;;;;;;;2.23;0.70;;;25.10;1.00;;;;;;8368019;28;20343;-66
2022/06/10 14:58:28;;;;;;;2.20;0.60;;;24.60;1.00;;;;;;8368753;28;20178;-71
2022/06/10 15:02:29;;;;;;;2.27;0.80;;;24.10;1.00;;;;;;8365670;28;20229;-66
2022/06/10 15:06:40;;;;;;;2.17;0.70;;;24.30;1.00;;;;;;8371002;28;20220;-67
2022/06/10 15:10:45;;;;;;;1.77;0.57;;;24.70;1.00;;;;;;8366518;28;20181;-65
2022/06/10 15:14:46;;;;;;;3.70;0.90;;;24.70;1.00;;;;;;8367703;28;20315;-66
2022/06/10 15:18:48;;;;;;;4.00;1.00;;;24.80;1.00;;;;;;8371152;28;20213;-66
2022/06/10 15:22:53;;;;;;;2.90;0.70;;;24.80;1.00;;;;;;8373331;28;20255;-65
2022/06/10 15:26:55;;;;;;;3.67;0.77;;;24.50;1.00;;;;;;8368687;28;20606;-69
2022/06/10 15:30:58;;;;;;;1.53;0.70;;;24.40;1.00;;;;;;8365696;28;20185;-66
2022/06/10 15:43:41;;;;;;;5.20;1.10;;;24.50;1.00;;;;;;8371341;28;20192;-69
2022/06/10 15:47:41;;;;;;;3.50;0.80;;;24.60;1.00;;;;;;8362708;28;20235;-67
2022/06/10 15:52:04;;;;;;;3.83;0.70;;;24.40;1.00;;;;;;8362007;28;20234;-67
2022/06/10 16:00:28;;;;;;;2.73;0.90;;;24.60;1.00;;;;;;8371580;28;20184;-70
2022/06/10 16:04:30;;;;;;;2.23;0.60;;;24.40;1.00;;;;;;8364815;28;20177;-68
2022/06/10 16:08:32;;;;;;;3.10;1.00;;;24.30;1.00;;;;;;8369324;28;20188;-67
2022/06/10 16:16:53;;;;;;;2.73;0.70;;;24.40;1.00;;;;;;8365282;28;20212;-68
2022/06/10 16:20:56;;;;;;;3.57;0.90;;;24.30;1.00;;;;;;8369595;28;20205;-68
2022/06/10 16:24:56;;;;;;;1.20;0.80;;;24.40;1.00;;;;;;8364269;28;20227;-65
2022/06/10 16:29:07;;;;;;;2.47;0.80;;;24.30;1.00;;;;;;8369122;28;20204;-69
2022/06/10 16:33:11;;;;;;;2.27;0.77;;;23.90;1.00;;;;;;8360970;28;20178;-70
2022/06/10 16:37:12;;;;;;;2.77;0.97;;;23.50;1.00;;;;;;8366102;28;20198;-67
2022/06/10 16:41:32;;;;;;;1.43;0.80;;;23.20;1.00;;;;;;8362623;28;20191;-67
2022/06/10 16:45:33;;;;;;;3.33;1.03;;;23.10;1.00;;;;;;8367479;28;20192;-66
2022/06/10 16:49:35;;;;;;;1.13;0.57;;;23.30;1.00;;;;;;8362869;28;20181;-67
2022/06/10 16:53:36;;;;;;;4.37;0.80;;;23.50;1.00;;;;;;8368600;28;20185;-67
2022/06/10 16:57:44;;;;;;;2.13;0.90;;;23.50;1.00;;;;;;8370621;28;20292;-70
2022/06/10 17:01:45;;;;;;;3.37;1.00;;;23.40;1.00;;;;;;8360976;28;20703;-68
2022/06/10 17:05:48;;;;;;;3.63;1.40;;;23.40;1.00;;;;;;8362234;28;20246;-73
2022/06/10 17:09:50;;;;;;;1.80;1.07;;;23.30;1.00;;;;;;8374467;28;20511;-66
2022/06/10 17:13:56;;;;;;;4.53;1.13;;;23.40;1.00;;;;;;8366396;28;20190;-68
2022/06/10 17:17:57;;;;;;;2.53;0.90;;;24.00;1.00;;;;;;8367167;28;20212;-70
2022/06/10 17:21:58;;;;;;;2.83;0.83;;;24.30;1.00;;;;;;8369681;28;20174;-68
2022/06/10 17:26:05;;;;;;;5.30;1.30;;;24.70;1.00;;;;;;8365047;28;20182;-68
2022/06/10 17:30:18;;;;;;;4.23;0.90;;;25.20;1.00;;;;;;8364560;28;20242;-67
2022/06/10 17:34:19;;;;;;;8.97;1.57;;;25.50;1.00;;;;;;8377390;28;20469;-66
2022/06/10 17:38:30;;;;;;;2.53;1.00;;;26.00;1.00;;;;;;8367293;28;20173;-70
2022/06/10 17:42:38;;;;;;;3.80;1.38;;;26.40;1.00;;;;;;8370733;28;20180;-67
2022/06/10 17:46:50;;;;;;;3.97;1.30;;;26.60;1.00;;;;;;8368362;28;20221;-67
2022/06/10 17:50:50;;;;;;;3.93;0.90;;;25.80;1.00;;;;;;8367375;28;20177;-69
2022/06/10 17:54:56;;;;;;;2.13;0.67;;;24.90;1.00;;;;;;8367723;28;20466;-68
2022/06/10 17:58:57;;;;;;;2.37;1.03;;;25.10;1.00;;;;;;8369968;28;21578;-69
2022/06/10 18:03:16;;;;;;;2.17;0.90;;;25.60;1.00;;;;;;8369424;28;20193;-69
2022/06/10 18:07:17;;;;;;;3.88;1.02;;;26.60;1.00;;;;;;8365970;28;20177;-69
2022/06/10 18:11:21;;;;;;;4.28;0.93;;;28.00;1.00;;;;;;8373471;28;20186;-67
2022/06/10 18:15:22;;;;;;;3.58;1.00;;;28.50;1.00;;;;;;8369145;28;20220;-68
2022/06/10 18:19:26;;;;;;;1.45;0.60;;;28.20;1.00;;;;;;8367553;28;20184;-67
2022/06/10 18:23:31;;;;;;;1.75;0.70;;;27.40;1.00;;;;;;8368070;28;20181;-69
2022/06/10 18:27:36;;;;;;;3.70;0.73;;;27.30;1.00;;;;;;8366843;28;20201;-69
2022/06/10 18:31:36;;;;;;;3.85;0.90;;;27.50;1.00;;;;;;8363906;28;20237;-69
2022/06/10 18:35:39;;;;;;;2.38;1.05;;;28.00;1.00;;;;;;8368381;28;20263;-69
2022/06/10 18:39:40;;;;;;;3.20;0.70;;;28.20;1.00;;;;;;8370520;28;20182;-68
2022/06/10 18:43:43;;;;;;;1.00;0.60;;;27.90;1.00;;;;;;8375639;28;20173;-68
2022/06/10 18:47:44;;;;;;;3.25;0.73;;;27.00;1.00;;;;;;8375039;28;20181;-69
2022/06/10 18:51:47;;;;;;;2.38;1.08;;;26.30;1.00;;;;;;8371354;28;20243;-69
2022/06/10 18:55:49;;;;;;;2.17;0.80;;;25.70;1.00;;;;;;8359445;28;20210;-69
2022/06/10 18:59:51;;;;;;;1.67;0.97;;;24.80;1.00;;;;;;8377692;28;20177;-68
2022/06/10 19:03:54;;;;;;;2.10;0.90;;;23.70;1.00;;;;;;8369333;28;20198;-68
2022/06/10 19:07:55;;;;;;;2.33;1.00;;;22.50;46.30;;;;;;8372053;28;20211;-69
2022/06/10 19:11:58;;;;;;;1.27;0.77;;;21.50;99.90;;;;;;8370031;28;20347;-68
2022/06/10 19:16:01;;;;;;;2.07;1.10;;;20.70;99.90;;;;;;8371903;28;20296;-68
2022/06/10 19:20:34;;;;;;;1.53;0.90;;;20.10;99.90;;;;;;8366389;28;20371;-68
2022/06/10 19:24:34;;;;;;;2.10;0.90;;;19.50;99.90;;;;;;8360774;28;20178;-68
2022/06/10 19:28:38;;;;;;;1.33;0.93;;;19.00;99.90;;;;;;8368243;28;20208;-68
2022/06/10 19:32:45;;;;;;;2.00;0.97;;;18.60;99.90;;;;;;8370232;28;20189;-69
2022/06/10 19:36:48;;;;;;;1.23;0.70;;;18.20;1.00;;;;;;8369283;28;20212;-68
2022/06/10 19:40:51;;;;;;;1.43;1.23;;;17.90;1.00;;;;;;8374036;28;20216;-67
2022/06/10 19:44:52;;;;;;;1.70;1.33;;;17.60;1.00;;;;;;8372646;28;20261;-67
2022/06/10 19:48:54;;;;;;;1.90;1.27;;;17.30;1.00;;;;;;8373340;28;20185;-71
2022/06/10 19:53:06;;;;;;;1.50;1.10;;;17.10;1.00;;;;;;8368312;28;20176;-67
2022/06/10 19:57:09;;;;;;;1.17;0.90;;;16.80;10.80;;;;;;8367976;28;20209;-67
2022/06/10 20:01:30;;;;;;;1.50;1.20;;;16.60;93.70;;;;;;8368568;28;20204;-67
2022/06/10 20:05:37;;;;;;;1.37;1.13;;;16.40;99.90;;;;;;8373723;28;20188;-69
2022/06/10 20:09:47;;;;;;;1.30;0.90;;;16.20;99.90;;;;;;8373014;28;20250;-67
2022/06/10 20:13:49;;;;;;;1.67;1.23;;;16.00;99.90;;;;;;8365694;28;20205;-67
2022/06/10 20:17:50;;;;;;;1.10;1.00;;;15.80;99.90;;;;;;8363358;28;20213;-67
2022/06/10 20:21:53;;;;;;;1.63;1.20;;;15.70;99.90;;;;;;8368602;28;20273;-66
2022/06/10 20:25:54;;;;;;;1.70;0.90;;;15.60;99.90;;;;;;8370427;28;20217;-66
2022/06/10 20:29:56;;;;;;;2.20;1.40;;;15.40;99.90;;;;;;8364738;28;20219;-67
2022/06/10 20:33:58;;;;;;;1.40;1.20;;;15.30;99.90;;;;;;8370366;28;20638;-67
2022/06/10 20:38:00;;;;;;;1.67;1.20;;;15.20;99.90;;;;;;8370884;28;20212;-67
2022/06/10 20:42:00;;;;;;;1.77;1.40;;;15.00;99.90;;;;;;8370257;28;20181;-67
2022/06/10 20:46:08;;;;;;;1.83;1.17;;;14.90;99.90;;;;;;8361049;28;20211;-67
2022/06/10 20:50:36;;;;;;;1.80;1.30;;;14.80;1.00;;;;;;8368557;28;20190;-67
2022/06/10 20:54:37;;;;;;;4.53;1.07;;;14.60;1.00;;;;;;8375332;28;20200;-67
2022/06/10 20:58:38;;;;;;;1.30;1.20;;;14.40;1.00;;;;;;8378046;28;20287;-68
2022/06/10 21:02:38;;;;;;;1.67;1.53;;;14.30;1.00;;;;;;8364124;28;20231;-68
2022/06/10 21:10:59;;;;;;;2.10;1.40;;;14.10;1.00;;;;;;8370371;28;20192;-68
2022/06/10 21:15:00;;;;;;;2.27;1.60;;;14.00;23.40;;;;;;8366951;28;20216;-68
2022/06/10 21:19:01;;;;;;;2.43;1.57;;;13.80;95.10;;;;;;8368508;28;20177;-68
2022/06/10 21:23:04;;;;;;;2.70;1.50;;;13.70;99.90;;;;;;8357451;28;20185;-68
2022/06/10 21:27:13;;;;;;;1.80;1.53;;;13.50;99.90;;;;;;8375133;28;20257;-68
2022/06/10 21:31:29;;;;;;;2.13;1.40;;;13.40;99.90;;;;;;8365358;28;20193;-68
2022/06/10 21:35:35;;;;;;;4.30;1.97;;;13.30;99.90;;;;;;8367042;28;20304;-68
2022/06/10 21:39:39;;;;;;;23.03;12.20;;;13.30;99.90;;;;;;8370187;28;20583;-68
2022/06/10 21:48:07;;;;;;;3.53;2.90;;;13.00;1.00;;;;;;8373500;28;20496;-66
2022/06/10 21:52:19;;;;;;;3.10;2.13;;;12.80;1.00;;;;;;8371787;28;20295;-66
2022/06/10 21:56:33;;;;;;;2.47;2.27;;;12.60;1.00;;;;;;8374636;28;20214;-66
2022/06/10 22:00:43;;;;;;;2.43;1.90;;;12.50;99.90;;;;;;8371965;28;20267;-66
2022/06/10 22:04:47;;;;;;;2.00;1.70;;;12.30;99.90;;;;;;8368736;28;20198;-67
2022/06/10 22:09:00;;;;;;;3.20;2.00;;;12.10;99.90;;;;;;8376999;28;20254;-67
2022/06/10 22:13:01;;;;;;;2.80;1.87;;;12.10;99.90;;;;;;8371159;28;20268;-67